N33M KLIT-KDSM
Flight info
| Callsign | N33M |
|---|---|
| Flight time | 1h 17m |
| Altitude | 34000 |
| Route | PLIED TWAIN Q19 JAVAS |
| Aircraft | C750/M-VGDW/C |
Departure
| Time | 2026-04-23 23:51 |
|---|---|
| Airport | Bill & Hillary Clinton National Airport/Adams Field (KLIT) |
Arrival
| Time | 2026-04-24 01:08 |
|---|---|
| Airport | Des Moines International Airport (KDSM) |
| Time | Latitude | Longitude | Altitude | Speed | Heading |
|---|---|---|---|---|---|
| 2026-04-23 23:32 | 34.73421 | -92.24020 | 259 ft | 0 kts | 1° |
| 2026-04-23 23:47 | 34.73425 | -92.24020 | 259 ft | 3 kts | 1° |
| 2026-04-23 23:48 | 34.73494 | -92.23996 | 259 ft | 12 kts | 36° |
| 2026-04-23 23:48 | 34.73573 | -92.23957 | 258 ft | 12 kts | 2° |
| 2026-04-23 23:48 | 34.73668 | -92.23955 | 258 ft | 15 kts | 1° |
| 2026-04-23 23:48 | 34.73782 | -92.23951 | 256 ft | 16 kts | 2° |
| 2026-04-23 23:49 | 34.73953 | -92.23930 | 255 ft | 3 kts | 42° |
| 2026-04-23 23:49 | 34.73956 | -92.23927 | 255 ft | 0 kts | 45° |
| 2026-04-23 23:49 | 34.73962 | -92.23919 | 255 ft | 4 kts | 54° |
| 2026-04-23 23:50 | 34.73958 | -92.23833 | 253 ft | 13 kts | 140° |
| 2026-04-23 23:50 | 34.73856 | -92.23812 | 255 ft | 25 kts | 181° |
| 2026-04-23 23:50 | 34.73349 | -92.23827 | 259 ft | 118 kts | 182° |
| 2026-04-23 23:50 | 34.72294 | -92.23858 | 353 ft | 178 kts | 181° |
| 2026-04-23 23:51 | 34.71104 | -92.24348 | 1124 ft | 193 kts | 220° |
| 2026-04-23 23:51 | 34.70423 | -92.25835 | 1772 ft | 219 kts | 252° |
| 2026-04-23 23:51 | 34.70183 | -92.27728 | 2342 ft | 239 kts | 258° |
| 2026-04-23 23:51 | 34.69949 | -92.29828 | 2826 ft | 263 kts | 258° |
| 2026-04-23 23:52 | 34.69694 | -92.32095 | 3639 ft | 274 kts | 258° |
| 2026-04-23 23:52 | 34.69438 | -92.34317 | 5061 ft | 271 kts | 258° |
| 2026-04-23 23:52 | 34.69175 | -92.36519 | 6476 ft | 266 kts | 258° |
| 2026-04-23 23:52 | 34.68894 | -92.38721 | 7623 ft | 270 kts | 259° |
| 2026-04-23 23:53 | 34.68562 | -92.40977 | 8653 ft | 277 kts | 259° |
| 2026-04-23 23:53 | 34.68596 | -92.43276 | 9592 ft | 286 kts | 288° |
| 2026-04-23 23:53 | 34.69719 | -92.45223 | 10658 ft | 290 kts | 321° |
| 2026-04-23 23:53 | 34.71562 | -92.46139 | 11685 ft | 297 kts | 352° |
| 2026-04-23 23:54 | 34.73648 | -92.46159 | 12699 ft | 301 kts | 359° |
| 2026-04-23 23:54 | 34.75755 | -92.46094 | 13598 ft | 306 kts | 359° |
| 2026-04-23 23:54 | 34.77858 | -92.46014 | 14577 ft | 306 kts | 359° |
| 2026-04-23 23:54 | 34.79982 | -92.45662 | 15455 ft | 315 kts | 17° |
| 2026-04-23 23:55 | 34.81959 | -92.44514 | 16294 ft | 320 kts | 22° |
| 2026-04-23 23:55 | 34.83961 | -92.43325 | 17069 ft | 325 kts | 23° |
| 2026-04-23 23:55 | 34.85978 | -92.42091 | 17872 ft | 328 kts | 23° |
| 2026-04-23 23:55 | 34.88029 | -92.40839 | 18622 ft | 333 kts | 23° |
| 2026-04-23 23:56 | 34.90132 | -92.39547 | 19332 ft | 338 kts | 23° |
| 2026-04-23 23:56 | 34.92234 | -92.38261 | 20025 ft | 343 kts | 23° |
| 2026-04-23 23:56 | 34.94358 | -92.36958 | 20699 ft | 348 kts | 23° |
| 2026-04-23 23:56 | 34.96537 | -92.35619 | 21357 ft | 352 kts | 23° |
| 2026-04-23 23:57 | 34.98729 | -92.34270 | 22015 ft | 356 kts | 23° |
| 2026-04-23 23:57 | 35.00968 | -92.32895 | 22675 ft | 360 kts | 23° |
| 2026-04-23 23:57 | 35.03200 | -92.31523 | 23302 ft | 364 kts | 23° |
| 2026-04-23 23:57 | 35.05490 | -92.30112 | 23935 ft | 368 kts | 23° |
| 2026-04-23 23:58 | 35.07765 | -92.28710 | 24534 ft | 371 kts | 23° |
| 2026-04-23 23:58 | 35.10068 | -92.27292 | 25137 ft | 374 kts | 23° |
| 2026-04-23 23:58 | 35.12431 | -92.25836 | 25706 ft | 378 kts | 23° |
| 2026-04-23 23:58 | 35.14777 | -92.24384 | 26277 ft | 381 kts | 23° |
| 2026-04-23 23:59 | 35.17070 | -92.22973 | 26773 ft | 384 kts | 23° |
| 2026-04-23 23:59 | 35.19488 | -92.21478 | 27294 ft | 388 kts | 23° |
| 2026-04-23 23:59 | 35.21896 | -92.19992 | 27822 ft | 391 kts | 23° |
| 2026-04-23 23:59 | 35.24327 | -92.18488 | 28329 ft | 394 kts | 23° |
| 2026-04-24 00:00 | 35.26780 | -92.16969 | 28821 ft | 397 kts | 24° |
| 2026-04-24 00:00 | 35.29260 | -92.15434 | 29317 ft | 399 kts | 24° |
| 2026-04-24 00:00 | 35.31749 | -92.13890 | 29777 ft | 402 kts | 24° |
| 2026-04-24 00:00 | 35.34252 | -92.12337 | 30244 ft | 405 kts | 24° |
| 2026-04-24 00:01 | 35.36784 | -92.10768 | 30681 ft | 408 kts | 24° |
| 2026-04-24 00:01 | 35.39343 | -92.09177 | 31111 ft | 411 kts | 24° |
| 2026-04-24 00:01 | 35.41892 | -92.07593 | 31538 ft | 413 kts | 24° |
| 2026-04-24 00:01 | 35.44475 | -92.05986 | 31948 ft | 416 kts | 24° |
| 2026-04-24 00:02 | 35.47058 | -92.04376 | 32334 ft | 420 kts | 24° |
| 2026-04-24 00:02 | 35.49666 | -92.02751 | 32702 ft | 423 kts | 24° |
| 2026-04-24 00:02 | 35.52314 | -92.01102 | 33080 ft | 426 kts | 25° |
| 2026-04-24 00:02 | 35.54948 | -91.99458 | 33436 ft | 429 kts | 25° |
| 2026-04-24 00:03 | 35.57618 | -91.97790 | 33779 ft | 432 kts | 25° |
| 2026-04-24 00:03 | 35.60335 | -91.96091 | 33858 ft | 442 kts | 25° |
| 2026-04-24 00:03 | 35.63115 | -91.94353 | 33883 ft | 453 kts | 25° |
| 2026-04-24 00:03 | 35.65941 | -91.92582 | 33883 ft | 463 kts | 25° |
| 2026-04-24 00:04 | 35.68870 | -91.90745 | 33882 ft | 474 kts | 25° |
| 2026-04-24 00:04 | 35.71817 | -91.88899 | 33883 ft | 484 kts | 25° |
| 2026-04-24 00:04 | 35.77923 | -91.85065 | 33882 ft | 499 kts | 25° |
| 2026-04-24 00:05 | 35.84192 | -91.81123 | 33880 ft | 511 kts | 25° |
| 2026-04-24 00:05 | 35.90592 | -91.77090 | 33877 ft | 521 kts | 25° |
| 2026-04-24 00:06 | 35.97098 | -91.72984 | 33874 ft | 531 kts | 25° |
| 2026-04-24 00:06 | 36.03718 | -91.68798 | 33874 ft | 537 kts | 25° |
| 2026-04-24 00:07 | 36.10429 | -91.64547 | 33871 ft | 540 kts | 25° |
| 2026-04-24 00:07 | 36.13850 | -91.62884 | 33810 ft | 535 kts | 10° |
| 2026-04-24 00:07 | 36.17575 | -91.62448 | 33912 ft | 529 kts | 359° |
| 2026-04-24 00:08 | 36.24921 | -91.62099 | 33867 ft | 531 kts | 359° |
| 2026-04-24 00:08 | 36.32344 | -91.61731 | 33864 ft | 532 kts | 360° |
| 2026-04-24 00:09 | 36.39730 | -91.61362 | 33857 ft | 532 kts | 360° |
| 2026-04-24 00:09 | 36.47137 | -91.60993 | 33860 ft | 531 kts | 359° |
| 2026-04-24 00:10 | 36.54535 | -91.60622 | 33854 ft | 531 kts | 360° |
| 2026-04-24 00:10 | 36.61899 | -91.60252 | 33855 ft | 531 kts | 359° |
| 2026-04-24 00:11 | 36.69321 | -91.59885 | 33860 ft | 531 kts | 359° |
| 2026-04-24 00:11 | 36.76687 | -91.59515 | 33854 ft | 532 kts | 359° |
| 2026-04-24 00:12 | 36.84105 | -91.59137 | 33857 ft | 532 kts | 359° |
| 2026-04-24 00:12 | 36.91506 | -91.58765 | 33854 ft | 532 kts | 359° |
| 2026-04-24 00:13 | 36.98906 | -91.58392 | 33855 ft | 532 kts | 359° |
| 2026-04-24 00:13 | 37.06353 | -91.58013 | 33839 ft | 532 kts | 359° |
| 2026-04-24 00:14 | 37.13717 | -91.57641 | 33848 ft | 532 kts | 359° |
| 2026-04-24 00:14 | 37.21136 | -91.57263 | 33842 ft | 533 kts | 359° |
| 2026-04-24 00:15 | 37.28560 | -91.56885 | 33835 ft | 533 kts | 359° |
| 2026-04-24 00:15 | 37.35962 | -91.56508 | 33835 ft | 532 kts | 359° |
| 2026-04-24 00:16 | 37.43353 | -91.56130 | 33832 ft | 532 kts | 359° |
| 2026-04-24 00:16 | 37.50726 | -91.55753 | 33830 ft | 532 kts | 359° |
| 2026-04-24 00:17 | 37.58162 | -91.55369 | 33828 ft | 532 kts | 359° |
| 2026-04-24 00:17 | 37.65564 | -91.54989 | 33824 ft | 532 kts | 359° |
| 2026-04-24 00:18 | 37.72926 | -91.54610 | 33828 ft | 532 kts | 359° |
| 2026-04-24 00:18 | 37.80370 | -91.54226 | 33824 ft | 533 kts | 359° |
| 2026-04-24 00:19 | 37.87763 | -91.53842 | 33823 ft | 532 kts | 359° |
| 2026-04-24 00:19 | 37.95178 | -91.53458 | 33818 ft | 532 kts | 359° |
| 2026-04-24 00:20 | 38.02566 | -91.53075 | 33809 ft | 532 kts | 359° |
| 2026-04-24 00:20 | 38.09980 | -91.52687 | 33806 ft | 532 kts | 359° |
| 2026-04-24 00:21 | 38.17353 | -91.52302 | 33794 ft | 533 kts | 359° |
| 2026-04-24 00:21 | 38.24790 | -91.51914 | 33790 ft | 532 kts | 359° |
| 2026-04-24 00:22 | 38.32177 | -91.51528 | 33782 ft | 532 kts | 359° |
| 2026-04-24 00:22 | 38.39585 | -91.51140 | 33776 ft | 532 kts | 359° |
| 2026-04-24 00:23 | 38.47007 | -91.50748 | 33771 ft | 532 kts | 359° |
| 2026-04-24 00:23 | 38.54395 | -91.50359 | 33778 ft | 532 kts | 359° |
| 2026-04-24 00:24 | 38.61791 | -91.49966 | 33776 ft | 533 kts | 359° |
| 2026-04-24 00:24 | 38.69223 | -91.49572 | 33774 ft | 533 kts | 358° |
| 2026-04-24 00:25 | 38.76601 | -91.49183 | 33762 ft | 532 kts | 359° |
| 2026-04-24 00:25 | 38.84014 | -91.48790 | 33758 ft | 532 kts | 358° |
| 2026-04-24 00:26 | 38.91445 | -91.48393 | 33763 ft | 532 kts | 359° |
| 2026-04-24 00:26 | 38.98830 | -91.48001 | 33764 ft | 532 kts | 358° |
| 2026-04-24 00:27 | 39.06235 | -91.47605 | 33757 ft | 532 kts | 359° |
| 2026-04-24 00:27 | 39.13625 | -91.47208 | 33752 ft | 533 kts | 358° |
| 2026-04-24 00:28 | 39.21027 | -91.46809 | 33749 ft | 533 kts | 358° |
| 2026-04-24 00:28 | 39.28465 | -91.46410 | 33749 ft | 532 kts | 358° |
| 2026-04-24 00:29 | 39.35876 | -91.46009 | 33746 ft | 532 kts | 358° |
| 2026-04-24 00:29 | 39.43272 | -91.45610 | 33747 ft | 532 kts | 358° |
| 2026-04-24 00:30 | 39.50683 | -91.45209 | 33735 ft | 533 kts | 358° |
| 2026-04-24 00:30 | 39.58122 | -91.44806 | 33728 ft | 533 kts | 358° |
| 2026-04-24 00:31 | 39.65459 | -91.44932 | 33679 ft | 524 kts | 342° |
| 2026-04-24 00:31 | 39.68813 | -91.46701 | 33759 ft | 512 kts | 326° |
| 2026-04-24 00:31 | 39.71567 | -91.49522 | 33780 ft | 504 kts | 313° |
| 2026-04-24 00:32 | 39.76722 | -91.55733 | 33734 ft | 507 kts | 313° |
| 2026-04-24 00:32 | 39.81858 | -91.61936 | 33716 ft | 507 kts | 314° |
| 2026-04-24 00:33 | 39.86998 | -91.68160 | 33719 ft | 507 kts | 313° |
| 2026-04-24 00:33 | 39.92176 | -91.74445 | 33713 ft | 506 kts | 314° |
| 2026-04-24 00:34 | 39.97281 | -91.80656 | 33715 ft | 500 kts | 314° |
| 2026-04-24 00:34 | 39.99815 | -91.83741 | 33654 ft | 487 kts | 314° |
| 2026-04-24 00:34 | 40.02240 | -91.86696 | 33678 ft | 468 kts | 313° |
| 2026-04-24 00:35 | 40.04578 | -91.89545 | 33540 ft | 454 kts | 313° |
| 2026-04-24 00:35 | 40.06804 | -91.92264 | 33044 ft | 439 kts | 313° |
| 2026-04-24 00:35 | 40.09013 | -91.94967 | 32454 ft | 429 kts | 313° |
| 2026-04-24 00:35 | 40.11161 | -91.97599 | 31848 ft | 420 kts | 313° |
| 2026-04-24 00:36 | 40.13262 | -92.00172 | 31259 ft | 411 kts | 313° |
| 2026-04-24 00:36 | 40.15330 | -92.02711 | 30686 ft | 403 kts | 313° |
| 2026-04-24 00:36 | 40.17339 | -92.05175 | 30153 ft | 396 kts | 313° |
| 2026-04-24 00:36 | 40.19336 | -92.07629 | 29620 ft | 395 kts | 312° |
| 2026-04-24 00:37 | 40.21343 | -92.10094 | 29073 ft | 396 kts | 312° |
| 2026-04-24 00:37 | 40.23344 | -92.12566 | 28469 ft | 399 kts | 312° |
| 2026-04-24 00:37 | 40.25389 | -92.15087 | 27790 ft | 404 kts | 312° |
| 2026-04-24 00:37 | 40.27418 | -92.17593 | 27108 ft | 408 kts | 312° |
| 2026-04-24 00:38 | 40.29507 | -92.20166 | 26637 ft | 406 kts | 312° |
| 2026-04-24 00:38 | 40.31531 | -92.22666 | 26112 ft | 406 kts | 312° |
| 2026-04-24 00:38 | 40.33582 | -92.25201 | 25617 ft | 405 kts | 312° |
| 2026-04-24 00:38 | 40.35635 | -92.27742 | 25111 ft | 404 kts | 312° |
| 2026-04-24 00:39 | 40.37669 | -92.30263 | 24566 ft | 403 kts | 312° |
| 2026-04-24 00:39 | 40.39703 | -92.32781 | 23935 ft | 401 kts | 312° |
| 2026-04-24 00:39 | 40.41727 | -92.35293 | 23260 ft | 399 kts | 312° |
| 2026-04-24 00:39 | 40.43733 | -92.37784 | 22595 ft | 397 kts | 312° |
| 2026-04-24 00:40 | 40.45719 | -92.40253 | 21960 ft | 393 kts | 312° |
| 2026-04-24 00:40 | 40.47692 | -92.42709 | 21337 ft | 389 kts | 311° |
| 2026-04-24 00:40 | 40.49631 | -92.45119 | 20726 ft | 385 kts | 312° |
| 2026-04-24 00:40 | 40.51572 | -92.47546 | 20111 ft | 382 kts | 312° |
| 2026-04-24 00:41 | 40.53467 | -92.49905 | 19507 ft | 377 kts | 311° |
| 2026-04-24 00:41 | 40.55361 | -92.52270 | 18899 ft | 371 kts | 311° |
| 2026-04-24 00:41 | 40.57188 | -92.54553 | 18319 ft | 365 kts | 311° |
| 2026-04-24 00:41 | 40.59018 | -92.56838 | 18111 ft | 348 kts | 311° |
| 2026-04-24 00:42 | 40.60729 | -92.58967 | 18057 ft | 330 kts | 311° |
| 2026-04-24 00:42 | 40.62401 | -92.61070 | 17850 ft | 336 kts | 311° |
| 2026-04-24 00:42 | 40.64092 | -92.63197 | 17358 ft | 341 kts | 311° |
| 2026-04-24 00:42 | 40.65832 | -92.65381 | 16867 ft | 346 kts | 310° |
| 2026-04-24 00:43 | 40.67561 | -92.67554 | 16392 ft | 350 kts | 310° |
| 2026-04-24 00:43 | 40.69341 | -92.69782 | 15912 ft | 352 kts | 310° |
| 2026-04-24 00:43 | 40.71101 | -92.71996 | 15432 ft | 351 kts | 310° |
| 2026-04-24 00:43 | 40.72866 | -92.74215 | 14927 ft | 350 kts | 310° |
| 2026-04-24 00:44 | 40.74640 | -92.76448 | 14436 ft | 348 kts | 310° |
| 2026-04-24 00:44 | 40.76371 | -92.78630 | 13965 ft | 347 kts | 310° |
| 2026-04-24 00:44 | 40.78192 | -92.80720 | 13476 ft | 347 kts | 315° |
| 2026-04-24 00:44 | 40.80032 | -92.82765 | 12989 ft | 346 kts | 314° |
| 2026-04-24 00:45 | 40.81849 | -92.84798 | 12521 ft | 344 kts | 314° |
| 2026-04-24 00:45 | 40.83690 | -92.86866 | 12052 ft | 343 kts | 314° |
| 2026-04-24 00:45 | 40.85483 | -92.88885 | 11573 ft | 342 kts | 314° |
| 2026-04-24 00:45 | 40.87281 | -92.90904 | 11127 ft | 340 kts | 314° |
| 2026-04-24 00:46 | 40.89085 | -92.92928 | 11032 ft | 332 kts | 314° |
| 2026-04-24 00:46 | 40.90834 | -92.94896 | 11010 ft | 330 kts | 314° |
| 2026-04-24 00:46 | 40.92565 | -92.96854 | 11016 ft | 333 kts | 314° |
| 2026-04-24 00:46 | 40.94343 | -92.98859 | 11013 ft | 336 kts | 314° |
| 2026-04-24 00:47 | 40.96149 | -93.00898 | 11014 ft | 339 kts | 314° |
| 2026-04-24 00:47 | 40.97931 | -93.02911 | 11013 ft | 341 kts | 314° |
| 2026-04-24 00:47 | 40.99754 | -93.04966 | 11017 ft | 343 kts | 314° |
| 2026-04-24 00:47 | 41.01584 | -93.07040 | 11011 ft | 345 kts | 314° |
| 2026-04-24 00:48 | 41.03397 | -93.09087 | 11013 ft | 346 kts | 314° |
| 2026-04-24 00:48 | 41.05228 | -93.11169 | 11016 ft | 348 kts | 314° |
| 2026-04-24 00:48 | 41.07086 | -93.13270 | 11007 ft | 350 kts | 314° |
| 2026-04-24 00:48 | 41.08928 | -93.15360 | 11001 ft | 351 kts | 314° |
| 2026-04-24 00:49 | 41.10806 | -93.17490 | 11008 ft | 353 kts | 314° |
| 2026-04-24 00:49 | 41.12671 | -93.19611 | 10994 ft | 349 kts | 314° |
| 2026-04-24 00:49 | 41.14494 | -93.21680 | 11011 ft | 340 kts | 314° |
| 2026-04-24 00:49 | 41.16264 | -93.23688 | 11007 ft | 331 kts | 314° |
| 2026-04-24 00:50 | 41.17989 | -93.25661 | 11008 ft | 323 kts | 314° |
| 2026-04-24 00:50 | 41.19659 | -93.27564 | 11015 ft | 317 kts | 313° |
| 2026-04-24 00:50 | 41.21326 | -93.29470 | 11002 ft | 318 kts | 313° |
| 2026-04-24 00:50 | 41.23027 | -93.31412 | 11019 ft | 323 kts | 313° |
| 2026-04-24 00:51 | 41.24718 | -93.33343 | 11027 ft | 324 kts | 313° |
| 2026-04-24 00:51 | 41.26441 | -93.35310 | 11008 ft | 320 kts | 313° |
| 2026-04-24 00:51 | 41.28121 | -93.37230 | 11004 ft | 320 kts | 313° |
| 2026-04-24 00:51 | 41.29835 | -93.39204 | 11019 ft | 333 kts | 314° |
| 2026-04-24 00:52 | 41.31530 | -93.41316 | 11000 ft | 338 kts | 304° |
| 2026-04-24 00:52 | 41.32957 | -93.43838 | 10656 ft | 337 kts | 301° |
| 2026-04-24 00:52 | 41.34354 | -93.46306 | 10282 ft | 329 kts | 301° |
| 2026-04-24 00:52 | 41.35702 | -93.48714 | 9902 ft | 323 kts | 301° |
| 2026-04-24 00:53 | 41.37027 | -93.51067 | 9510 ft | 312 kts | 301° |
| 2026-04-24 00:53 | 41.38304 | -93.53315 | 9125 ft | 302 kts | 301° |
| 2026-04-24 00:53 | 41.39556 | -93.55500 | 8743 ft | 293 kts | 301° |
| 2026-04-24 00:53 | 41.40780 | -93.57639 | 8309 ft | 288 kts | 301° |
| 2026-04-24 00:54 | 41.41985 | -93.59781 | 7806 ft | 286 kts | 301° |
| 2026-04-24 00:54 | 41.43161 | -93.61887 | 7317 ft | 285 kts | 301° |
| 2026-04-24 00:54 | 41.44320 | -93.63981 | 7037 ft | 275 kts | 301° |
| 2026-04-24 00:54 | 41.45428 | -93.65970 | 6988 ft | 258 kts | 300° |
| 2026-04-24 00:55 | 41.46496 | -93.67867 | 6985 ft | 260 kts | 301° |
| 2026-04-24 00:55 | 41.47578 | -93.69827 | 7006 ft | 265 kts | 300° |
| 2026-04-24 00:55 | 41.48684 | -93.71830 | 7005 ft | 270 kts | 300° |
| 2026-04-24 00:55 | 41.49812 | -93.73854 | 7009 ft | 274 kts | 301° |
| 2026-04-24 00:56 | 41.50952 | -93.75924 | 7009 ft | 281 kts | 301° |
| 2026-04-24 00:56 | 41.52118 | -93.78065 | 7013 ft | 290 kts | 300° |
| 2026-04-24 00:56 | 41.53320 | -93.80285 | 6747 ft | 298 kts | 300° |
| 2026-04-24 00:56 | 41.54509 | -93.82504 | 6390 ft | 294 kts | 301° |
| 2026-04-24 00:57 | 41.55690 | -93.84731 | 6019 ft | 286 kts | 300° |
| 2026-04-24 00:57 | 41.56830 | -93.86842 | 5653 ft | 279 kts | 300° |
| 2026-04-24 00:57 | 41.59071 | -93.91025 | 5022 ft | 276 kts | 300° |
| 2026-04-24 00:58 | 41.60174 | -93.93069 | 4984 ft | 268 kts | 301° |
| 2026-04-24 00:58 | 41.61263 | -93.95095 | 4979 ft | 268 kts | 301° |
| 2026-04-24 00:58 | 41.62350 | -93.97145 | 4746 ft | 269 kts | 301° |
| 2026-04-24 00:58 | 41.63423 | -93.99177 | 4496 ft | 266 kts | 301° |
| 2026-04-24 00:59 | 41.64484 | -94.01183 | 4257 ft | 265 kts | 301° |
| 2026-04-24 00:59 | 41.65555 | -94.03209 | 4036 ft | 266 kts | 301° |
| 2026-04-24 00:59 | 41.66611 | -94.05194 | 3983 ft | 263 kts | 301° |
| 2026-04-24 00:59 | 41.67668 | -94.07198 | 3977 ft | 263 kts | 301° |
| 2026-04-24 01:00 | 41.68832 | -94.09127 | 3967 ft | 272 kts | 317° |
| 2026-04-24 01:00 | 41.70593 | -94.10081 | 3992 ft | 280 kts | 353° |
| 2026-04-24 01:00 | 41.72507 | -94.09557 | 3988 ft | 284 kts | 28° |
| 2026-04-24 01:00 | 41.73990 | -94.07820 | 3926 ft | 286 kts | 50° |
| 2026-04-24 01:01 | 41.75110 | -94.05634 | 3789 ft | 286 kts | 72° |
| 2026-04-24 01:01 | 41.75281 | -94.03079 | 3679 ft | 279 kts | 103° |
| 2026-04-24 01:01 | 41.74823 | -94.00562 | 3584 ft | 278 kts | 107° |
| 2026-04-24 01:01 | 41.74334 | -93.98035 | 3490 ft | 274 kts | 112° |
| 2026-04-24 01:02 | 41.73483 | -93.95853 | 3479 ft | 264 kts | 128° |
| 2026-04-24 01:02 | 41.72372 | -93.93816 | 3488 ft | 273 kts | 131° |
| 2026-04-24 01:02 | 41.71166 | -93.91836 | 3495 ft | 279 kts | 134° |
| 2026-04-24 01:02 | 41.69899 | -93.89889 | 3478 ft | 264 kts | 136° |
| 2026-04-24 01:03 | 41.68729 | -93.88127 | 3467 ft | 245 kts | 136° |
| 2026-04-24 01:03 | 41.67606 | -93.86482 | 3462 ft | 231 kts | 137° |
| 2026-04-24 01:03 | 41.66587 | -93.84978 | 3460 ft | 205 kts | 137° |
| 2026-04-24 01:03 | 41.65634 | -93.83586 | 3459 ft | 204 kts | 137° |
| 2026-04-24 01:04 | 41.64655 | -93.82159 | 3474 ft | 208 kts | 138° |
| 2026-04-24 01:04 | 41.63670 | -93.80720 | 3437 ft | 214 kts | 138° |
| 2026-04-24 01:04 | 41.62693 | -93.79292 | 3200 ft | 198 kts | 138° |
| 2026-04-24 01:04 | 41.61809 | -93.77990 | 2956 ft | 180 kts | 139° |
| 2026-04-24 01:05 | 41.60999 | -93.76806 | 2757 ft | 167 kts | 140° |
| 2026-04-24 01:05 | 41.60236 | -93.75698 | 2520 ft | 156 kts | 140° |
| 2026-04-24 01:05 | 41.59533 | -93.74675 | 2296 ft | 144 kts | 139° |
| 2026-04-24 01:05 | 41.58872 | -93.73711 | 2112 ft | 136 kts | 140° |
| 2026-04-24 01:06 | 41.58265 | -93.72815 | 1940 ft | 127 kts | 141° |
| 2026-04-24 01:06 | 41.57664 | -93.71949 | 1786 ft | 125 kts | 140° |
| 2026-04-24 01:06 | 41.57071 | -93.71090 | 1625 ft | 131 kts | 141° |
| 2026-04-24 01:06 | 41.56423 | -93.70158 | 1475 ft | 141 kts | 137° |
| 2026-04-24 01:07 | 41.55776 | -93.69196 | 1276 ft | 134 kts | 140° |
| 2026-04-24 01:07 | 41.55157 | -93.68305 | 1100 ft | 127 kts | 137° |
| 2026-04-24 01:07 | 41.54543 | -93.67419 | 940 ft | 135 kts | 136° |
| 2026-04-24 01:07 | 41.53946 | -93.66551 | 914 ft | 114 kts | 135° |
| 2026-04-24 01:08 | 41.53547 | -93.65986 | 926 ft | 57 kts | 129° |
| 2026-04-24 01:08 | 41.53389 | -93.65748 | 935 ft | 18 kts | 134° |
| 2026-04-24 01:08 | 41.53299 | -93.65718 | 937 ft | 12 kts | 219° |
| 2026-04-24 01:08 | 41.53238 | -93.65819 | 935 ft | 16 kts | 235° |
| 2026-04-24 01:09 | 41.53156 | -93.65963 | 929 ft | 22 kts | 230° |
| 2026-04-24 01:09 | 41.53059 | -93.66137 | 925 ft | 21 kts | 232° |
| 2026-04-24 01:09 | 41.52987 | -93.66217 | 922 ft | 10 kts | 146° |
| 2026-04-24 01:09 | 41.52958 | -93.66189 | 924 ft | 0 kts | 143° |